Hauptseite
METAR-TAF:

METAR-TAF

Flughäfen :

Flughafen Heringsdorf

Heringsdorf, Deutschland

Breite: 53-53N, Länge: 014-09E, Höhe: 28 m

Beobachtung

Neuester Wetterbericht von vor 6 Stunden und 21 Minuten, um 14:20 UTC
Wind 17 kt aus West, Böen bis zu 29 kt, variierte zwischen West/Südwest und Nordwest
Temperatur 9°C
Luftfeuchtigkeit 37%
Luftdruck 1011 hPa
Sichtweite 10 km oder mehr
keine Wolken unter 1500 m und keine Kumulonimbus oder Gewitterwolken

METAR: EDAH 031420Z 28017G29KT 240V310 CAVOK 09/M05 Q1011

Zeit: 22:41 (20:41 UTC)

Prognose

Neuester Wetterbericht von vor 9 Stunden und 41 Minuten, um 11:00 UTC
Gültige Prognose vom 03 um 12 UTC bis 03 um 21 UTC
Wind 15 kt aus West, Böen bis zu 25 kt
Sichtweite 10 km oder mehr
Aufgelockert bewölkt in der Höhe von 4000 ft
Übergehend zu
vom 03 um 16 UTC bis 03 um 19 UTC
Wind 12 kt aus West

TAF: EDAH 031100Z 0312/0321 27015G25KT 9999 SCT040 BECMG 0316/0319 27012KT

Wetterbeobachtungen und Prognosen von mehr als 4000 Flughäfen (METAR und TAF Bericht).

Die verfügbaren Stationen werden durch gelbe und rote Markierungen auf der Karte dargestellt.

Führen Sie die Maus auf sie, um den Namen der Station zu sehen.

Darauf klicken, um die Beobachtung von Wetterbeobachtungen und Prognosen zu sehen.

Um die Karte zu ändern : klicken Sie auf den grünen Tasten mit einem schwarzen Kreuz Zum Vergrößern, auf den grünen Button mit einem Gedankenstrich zu verkleinern, oder auf die grünen Pfeile für benachbarte Karten.


METAR-TAF: